Time;durP1;ratioP1;P1;durP2;ratioP2;P2;SDS_P1;SDS_P2;PMS_P1;PMS_P2;Temp;Humidity;BMP_temperature;BMP_pressure;BME280_temperature;BME280_humidity;BME280_pressure;Samples;Min_cycle;Max_cycle;Signal;HPM_P1;HPM_P2
2022/02/17 08:11:40;;;;;;;4.82;1.27;;;;;;;;;;12826848;23;20017;-82
2022/02/17 08:16:41;;;;;;;5.82;1.15;;;;;;;;;;12868212;23;20016;-81
2022/02/17 08:21:42;;;;;;;4.22;1.13;;;;;;;;;;12903271;23;20029;-78
2022/02/17 08:26:44;;;;;;;4.57;1.63;;;;;;;;;;12887826;23;20011;-80
2022/02/17 08:31:47;;;;;;;7.20;2.25;;;;;;;;;;12878651;23;20012;-80
2022/02/17 08:36:48;;;;;;;4.05;1.20;;;;;;;;;;12874170;23;20009;-80
2022/02/17 08:41:49;;;;;;;5.22;1.42;;;;;;;;;;12879774;23;20003;-81
2022/02/17 08:46:51;;;;;;;7.68;1.65;;;;;;;;;;12884877;23;20019;-80
2022/02/17 08:51:52;;;;;;;6.45;1.30;;;;;;;;;;12892441;23;20039;-80
2022/02/17 08:56:53;;;;;;;7.63;2.85;;;;;;;;;;12889931;23;20004;-81
2022/02/17 09:01:54;;;;;;;7.55;1.60;;;;;;;;;;12890926;23;20067;-81
2022/02/17 09:06:55;;;;;;;5.63;1.58;;;;;;;;;;12889034;23;20063;-81
2022/02/17 09:11:56;;;;;;;5.10;1.65;;;;;;;;;;12918426;23;20020;-81
2022/02/17 09:16:57;;;;;;;6.88;2.40;;;;;;;;;;12919769;23;20021;-80
2022/02/17 09:21:59;;;;;;;4.63;1.20;;;;;;;;;;12958483;22;20023;-79
2022/02/17 09:27:00;;;;;;;4.40;1.30;;;;;;;;;;12979809;22;20072;-78
2022/02/17 09:32:01;;;;;;;5.13;1.52;;;;;;;;;;12964608;22;20000;-81
2022/02/17 09:37:02;;;;;;;3.28;1.20;;;;;;;;;;12957525;23;20019;-80
2022/02/17 09:42:04;;;;;;;6.40;1.17;;;;;;;;;;12957486;22;20079;-81
2022/02/17 09:47:07;;;;;;;5.88;1.45;;;;;;;;;;12969478;23;20034;-82
2022/02/17 09:52:09;;;;;;;3.85;1.50;;;;;;;;;;12961354;23;20031;-82
2022/02/17 09:57:10;;;;;;;6.35;1.75;;;;;;;;;;12962064;22;20007;-80
2022/02/17 10:02:12;;;;;;;6.03;1.60;;;;;;;;;;12963154;23;20000;-81
2022/02/17 10:07:13;;;;;;;5.10;1.70;;;;;;;;;;12956862;22;20301;-80
2022/02/17 10:12:15;;;;;;;5.38;1.10;;;;;;;;;;12952772;23;20072;-81
2022/02/17 10:17:16;;;;;;;3.67;1.25;;;;;;;;;;12948556;22;20028;-80
2022/02/17 10:22:19;;;;;;;4.18;1.40;;;;;;;;;;12951547;22;20008;-81
2022/02/17 10:27:25;;;;;;;4.45;1.25;;;;;;;;;;12949810;22;20004;-80
2022/02/17 10:32:26;;;;;;;5.43;1.55;;;;;;;;;;12944982;23;20024;-81
2022/02/17 10:37:47;;;;;;;3.90;1.20;;;;;;;;;;12947927;22;20079;-81
2022/02/17 10:43:04;;;;;;;2.80;1.00;;;;;;;;;;12943878;23;20015;-79
2022/02/17 10:48:11;;;;;;;4.72;1.20;;;;;;;;;;12945287;22;20087;-82
2022/02/17 10:53:15;;;;;;;5.85;1.45;;;;;;;;;;12943668;23;20008;-82
2022/02/17 10:58:17;;;;;;;3.55;0.85;;;;;;;;;;12940256;22;20004;-81
2022/02/17 11:03:18;;;;;;;8.52;1.60;;;;;;;;;;12943076;23;20015;-82
2022/02/17 11:08:19;;;;;;;4.68;1.40;;;;;;;;;;12943000;22;20117;-82
2022/02/17 11:13:23;;;;;;;5.03;1.35;;;;;;;;;;12950059;23;20389;-81
2022/02/17 11:18:25;;;;;;;4.63;1.42;;;;;;;;;;12936254;22;20088;-80
2022/02/17 11:23:26;;;;;;;;;;;;;;;;;;12942422;23;20014;-82
2022/02/17 11:28:32;;;;;;;6.63;1.27;;;;;;;;;;12941610;22;19935;-82
2022/02/17 11:33:35;;;;;;;6.25;1.42;;;;;;;;;;12943547;23;20331;-83
2022/02/17 11:38:39;;;;;;;6.40;1.77;;;;;;;;;;12942225;22;20004;-83
2022/02/17 11:44:04;;;;;;;5.13;1.27;;;;;;;;;;12945417;23;20019;-80
2022/02/17 11:49:05;;;;;;;6.18;1.75;;;;;;;;;;12945437;22;20034;-82
2022/02/17 11:54:15;;;;;;;4.30;1.25;;;;;;;;;;12944113;23;20068;-81
2022/02/17 11:59:26;;;;;;;5.18;1.40;;;;;;;;;;12951505;22;20004;-82
2022/02/17 12:04:30;;;;;;;5.75;1.20;;;;;;;;;;12946119;22;20000;-81
2022/02/17 12:09:45;;;;;;;3.85;1.35;;;;;;;;;;12941825;22;20063;-81
2022/02/17 12:14:47;;;;;;;4.35;1.48;;;;;;;;;;12941659;23;20004;-82
2022/02/17 12:19:48;;;;;;;6.70;1.17;;;;;;;;;;12938857;22;20083;-79
2022/02/17 12:24:50;;;;;;;;;;;;;;;;;;12940638;23;20004;-80
2022/02/17 12:29:57;;;;;;;4.38;1.20;;;;;;;;;;12939101;22;19954;-80
2022/02/17 12:34:58;;;;;;;5.60;1.45;;;;;;;;;;12944651;22;20075;-80
2022/02/17 12:39:59;;;;;;;5.13;1.50;;;;;;;;;;12933884;22;20007;-79
2022/02/17 12:45:00;;;;;;;;;;;;;;;;;;12931253;23;20056;-80
2022/02/17 12:50:05;;;;;;;5.67;1.20;;;;;;;;;;12930974;22;19906;-80
2022/02/17 12:55:09;;;;;;;5.60;1.20;;;;;;;;;;12931879;23;20309;-80
2022/02/17 13:00:11;;;;;;;3.90;1.00;;;;;;;;;;12931101;22;20076;-79
2022/02/17 13:05:16;;;;;;;7.47;1.85;;;;;;;;;;12930117;23;20022;-79
2022/02/17 13:10:17;;;;;;;2.92;0.80;;;;;;;;;;12929342;22;20055;-80
2022/02/17 13:15:18;;;;;;;6.22;1.70;;;;;;;;;;12932236;23;20079;-80
2022/02/17 13:20:25;;;;;;;4.93;1.20;;;;;;;;;;12932098;22;20090;-80
2022/02/17 13:25:35;;;;;;;3.95;0.90;;;;;;;;;;12932754;23;20008;-81
2022/02/17 13:30:36;;;;;;;4.80;1.15;;;;;;;;;;12937851;22;20070;-82
2022/02/17 13:35:48;;;;;;;7.15;1.20;;;;;;;;;;12935288;23;20051;-80
2022/02/17 13:40:50;;;;;;;3.95;1.08;;;;;;;;;;12946153;22;20011;-82
2022/02/17 13:45:59;;;;;;;4.72;1.10;;;;;;;;;;12955478;23;20034;-82
2022/02/17 13:51:07;;;;;;;3.72;0.90;;;;;;;;;;12952780;22;20004;-81
2022/02/17 13:56:10;;;;;;;3.72;0.90;;;;;;;;;;12955733;23;20035;-82
2022/02/17 14:01:11;;;;;;;4.43;1.17;;;;;;;;;;12947320;22;20004;-82
2022/02/17 14:06:14;;;;;;;7.93;1.20;;;;;;;;;;12944163;23;20087;-82
2022/02/17 14:11:16;;;;;;;6.00;0.85;;;;;;;;;;12967723;22;20000;-83
2022/02/17 14:16:17;;;;;;;5.68;1.45;;;;;;;;;;12956255;23;20020;-82
2022/02/17 14:21:18;;;;;;;4.90;1.65;;;;;;;;;;12953580;22;20392;-82
2022/02/17 14:26:19;;;;;;;7.07;1.42;;;;;;;;;;12951016;23;20036;-84
2022/02/17 14:31:20;;;;;;;5.47;1.67;;;;;;;;;;12967345;22;20007;-82
2022/02/17 14:36:21;;;;;;;5.60;1.40;;;;;;;;;;12969369;23;20409;-81
2022/02/17 14:41:22;;;;;;;3.60;1.40;;;;;;;;;;12974000;22;20000;-81
2022/02/17 14:46:23;;;;;;;4.75;1.33;;;;;;;;;;12958486;23;20008;-81
2022/02/17 14:51:24;;;;;;;5.88;1.60;;;;;;;;;;12946292;22;20000;-82
2022/02/17 14:56:25;;;;;;;5.70;1.35;;;;;;;;;;12946168;23;20008;-81
2022/02/17 15:01:26;;;;;;;7.63;1.52;;;;;;;;;;12949887;22;20019;-82
2022/02/17 15:06:27;;;;;;;5.45;1.42;;;;;;;;;;12944619;23;20011;-82
2022/02/17 15:11:28;;;;;;;;;;;;;;;;;;12951382;22;20007;-82
2022/02/17 15:16:29;;;;;;;3.77;1.00;;;;;;;;;;12940831;23;19926;-83
2022/02/17 15:21:30;;;;;;;5.90;2.05;;;;;;;;;;12943353;22;20361;-82
2022/02/17 15:26:31;;;;;;;17.02;6.30;;;;;;;;;;12949776;23;20032;-81
2022/02/17 15:31:32;;;;;;;4.47;1.58;;;;;;;;;;12949366;22;20043;-84
2022/02/17 15:36:33;;;;;;;5.22;1.20;;;;;;;;;;12945320;23;20004;-82
2022/02/17 15:41:34;;;;;;;5.35;1.33;;;;;;;;;;12945582;22;19996;-83
2022/02/17 15:46:35;;;;;;;5.80;1.17;;;;;;;;;;12955205;23;20004;-82
2022/02/17 15:51:36;;;;;;;4.35;1.00;;;;;;;;;;12957575;22;20004;-82
2022/02/17 15:56:37;;;;;;;3.28;0.93;;;;;;;;;;12956289;23;20004;-81
2022/02/17 16:01:39;;;;;;;5.25;1.00;;;;;;;;;;12971456;22;20015;-82
2022/02/17 16:06:41;;;;;;;;;;;;;;;;;;12967813;22;20052;-82
2022/02/17 16:11:43;;;;;;;5.10;0.98;;;;;;;;;;12968154;22;19935;-83
2022/02/17 16:16:44;;;;;;;;;;;;;;;;;;12964030;23;20000;-82
2022/02/17 16:21:45;;;;;;;3.57;0.83;;;;;;;;;;12970309;22;19892;-82
2022/02/17 16:26:47;;;;;;;5.22;1.02;;;;;;;;;;12970311;22;20235;-82
2022/02/17 16:31:47;;;;;;;;;;;;;;;;;;12965781;22;20004;-82
2022/02/17 16:36:48;;;;;;;2.87;1.03;;;;;;;;;;12960427;23;19909;-83
2022/02/17 16:41:51;;;;;;;4.43;1.58;;;;;;;;;;12953407;22;20004;-83
2022/02/17 16:46:52;;;;;;;4.47;1.60;;;;;;;;;;12952487;23;20197;-84
2022/02/17 16:51:54;;;;;;;4.00;1.08;;;;;;;;;;12948884;22;20015;-83
2022/02/17 16:56:55;;;;;;;3.42;1.10;;;;;;;;;;12951275;23;20087;-84
2022/02/17 17:01:56;;;;;;;;;;;;;;;;;;12947785;22;20000;-80
2022/02/17 17:06:58;;;;;;;4.25;1.02;;;;;;;;;;12945102;22;19911;-81
2022/02/17 17:11:58;;;;;;;;;;;;;;;;;;12921135;23;20018;-81
2022/02/17 17:17:05;;;;;;;4.82;1.20;;;;;;;;;;12946805;23;19910;-82
2022/02/17 17:22:06;;;;;;;5.18;1.70;;;;;;;;;;12939575;22;20044;-81
2022/02/17 17:27:08;;;;;;;4.50;1.20;;;;;;;;;;12948145;22;20373;-81
2022/02/17 17:32:09;;;;;;;3.95;0.90;;;;;;;;;;12940133;23;20098;-79
2022/02/17 17:37:11;;;;;;;4.90;1.38;;;;;;;;;;12939025;22;20000;-81
2022/02/17 17:42:12;;;;;;;4.97;1.05;;;;;;;;;;12934433;23;20016;-79
2022/02/17 17:47:13;;;;;;;3.63;1.10;;;;;;;;;;12932639;22;20059;-80
2022/02/17 17:52:14;;;;;;;3.80;1.30;;;;;;;;;;12931657;23;20008;-79
2022/02/17 17:57:15;;;;;;;4.22;1.38;;;;;;;;;;12934486;22;20511;-81
2022/02/17 18:02:17;;;;;;;3.88;1.10;;;;;;;;;;12930391;23;20003;-79
2022/02/17 18:07:18;;;;;;;;;;;;;;;;;;12927548;22;20091;-78
2022/02/17 18:12:19;;;;;;;2.92;1.23;;;;;;;;;;12927361;23;19940;-82
2022/02/17 18:17:19;;;;;;;4.53;1.20;;;;;;;;;;12927514;22;20008;-80
2022/02/17 18:22:20;;;;;;;2.28;1.00;;;;;;;;;;12928273;22;20008;-80
2022/02/17 18:27:22;;;;;;;3.92;0.93;;;;;;;;;;12927448;22;20052;-81
2022/02/17 18:32:23;;;;;;;5.18;1.20;;;;;;;;;;12928310;23;20136;-81
2022/02/17 18:37:24;;;;;;;3.63;1.20;;;;;;;;;;12935857;22;20421;-80
2022/02/17 18:42:25;;;;;;;;;;;;;;;;;;12932125;23;20337;-80
2022/02/17 18:47:29;;;;;;;4.82;1.23;;;;;;;;;;12928048;22;19907;-80
2022/02/17 18:52:30;;;;;;;6.13;1.50;;;;;;;;;;12927056;23;20083;-81
2022/02/17 18:57:32;;;;;;;3.90;1.10;;;;;;;;;;12929949;22;20067;-79
2022/02/17 19:02:33;;;;;;;2.75;0.80;;;;;;;;;;12929181;22;20000;-80
2022/02/17 19:07:35;;;;;;;;;;;;;;;;;;12926973;22;20382;-80
2022/02/17 19:12:36;;;;;;;2.53;1.00;;;;;;;;;;12926527;23;20018;-80
2022/02/17 19:17:38;;;;;;;2.70;1.20;;;;;;;;;;12928520;22;20000;-79
2022/02/17 19:22:39;;;;;;;4.50;1.20;;;;;;;;;;12925969;22;20039;-80
2022/02/17 19:27:41;;;;;;;3.15;1.00;;;;;;;;;;12926661;22;20095;-80
2022/02/17 19:32:41;;;;;;;;;;;;;;;;;;12926608;23;20518;-79
2022/02/17 19:37:43;;;;;;;2.90;0.90;;;;;;;;;;12924881;22;19908;-80
2022/02/17 19:42:44;;;;;;;3.53;0.80;;;;;;;;;;12926344;23;19996;-80
2022/02/17 19:47:45;;;;;;;2.42;0.90;;;;;;;;;;12926039;22;20008;-80
2022/02/17 19:52:46;;;;;;;;;;;;;;;;;;12928252;23;20027;-80
2022/02/17 19:57:47;;;;;;;2.53;0.93;;;;;;;;;;12934301;22;19982;-80
2022/02/17 20:02:50;;;;;;;3.20;0.95;;;;;;;;;;12930375;23;20000;-80
2022/02/17 20:07:54;;;;;;;3.53;1.42;;;;;;;;;;12935068;22;20011;-80
2022/02/17 20:12:55;;;;;;;3.38;1.20;;;;;;;;;;12966555;23;19992;-79
2022/02/17 20:17:56;;;;;;;4.60;1.50;;;;;;;;;;12980614;22;20012;-79
2022/02/17 20:22:58;;;;;;;2.53;1.10;;;;;;;;;;12977432;23;20353;-79
2022/02/17 20:27:59;;;;;;;2.78;0.90;;;;;;;;;;12969929;22;20330;-78
2022/02/17 20:33:00;;;;;;;2.80;1.02;;;;;;;;;;12968201;23;20002;-78
2022/02/17 20:38:03;;;;;;;3.60;1.00;;;;;;;;;;12972401;22;20024;-79
2022/02/17 20:43:04;;;;;;;4.13;1.30;;;;;;;;;;12975664;23;19996;-79
2022/02/17 20:53:25;;;;;;;4.35;1.27;;;;;;;;;;12977671;22;20020;-79
2022/02/17 20:58:31;;;;;;;4.88;2.00;;;;;;;;;;12979961;22;20004;-79
2022/02/17 21:03:39;;;;;;;3.55;1.70;;;;;;;;;;12981361;22;19992;-79
2022/02/17 21:08:44;;;;;;;3.55;1.38;;;;;;;;;;12973837;22;20004;-80
